sensor_id;sensor_type;location;lat;lon;timestamp;P1;durP1;ratioP1;P2;durP2;ratioP2
10005;SDS011;5042;42.626;23.382;2023-04-06T00:00:10;4.90;;;3.40;;
10005;SDS011;5042;42.626;23.382;2023-04-06T00:02:39;6.67;;;4.93;;
10005;SDS011;5042;42.626;23.382;2023-04-06T00:05:06;6.27;;;4.57;;
10005;SDS011;5042;42.626;23.382;2023-04-06T00:07:33;5.17;;;4.50;;
10005;SDS011;5042;42.626;23.382;2023-04-06T00:10:01;5.40;;;4.10;;
10005;SDS011;5042;42.626;23.382;2023-04-06T00:12:28;5.00;;;4.50;;
10005;SDS011;5042;42.626;23.382;2023-04-06T00:14:55;6.57;;;4.80;;
10005;SDS011;5042;42.626;23.382;2023-04-06T00:17:23;5.23;;;4.73;;
10005;SDS011;5042;42.626;23.382;2023-04-06T00:19:50;6.10;;;4.83;;
10005;SDS011;5042;42.626;23.382;2023-04-06T00:22:16;6.20;;;4.53;;
10005;SDS011;5042;42.626;23.382;2023-04-06T00:24:43;5.87;;;4.67;;
10005;SDS011;5042;42.626;23.382;2023-04-06T00:27:10;6.10;;;4.40;;
10005;SDS011;5042;42.626;23.382;2023-04-06T00:29:37;4.50;;;3.60;;
10005;SDS011;5042;42.626;23.382;2023-04-06T00:32:04;6.00;;;5.03;;
10005;SDS011;5042;42.626;23.382;2023-04-06T00:34:32;7.37;;;4.50;;
10005;SDS011;5042;42.626;23.382;2023-04-06T00:36:59;4.67;;;3.83;;
10005;SDS011;5042;42.626;23.382;2023-04-06T00:39:25;7.03;;;5.00;;
10005;SDS011;5042;42.626;23.382;2023-04-06T00:41:52;6.17;;;4.27;;
10005;SDS011;5042;42.626;23.382;2023-04-06T00:44:20;5.57;;;4.50;;
10005;SDS011;5042;42.626;23.382;2023-04-06T00:46:47;6.77;;;4.57;;
10005;SDS011;5042;42.626;23.382;2023-04-06T00:49:14;4.10;;;3.50;;
10005;SDS011;5042;42.626;23.382;2023-04-06T00:51:43;6.73;;;4.63;;
10005;SDS011;5042;42.626;23.382;2023-04-06T00:54:10;7.57;;;4.73;;
10005;SDS011;5042;42.626;23.382;2023-04-06T00:56:37;7.27;;;4.37;;
10005;SDS011;5042;42.626;23.382;2023-04-06T00:59:03;6.20;;;4.77;;
10005;SDS011;5042;42.626;23.382;2023-04-06T01:01:30;5.07;;;3.80;;
10005;SDS011;5042;42.626;23.382;2023-04-06T01:03:58;6.07;;;4.67;;
10005;SDS011;5042;42.626;23.382;2023-04-06T01:06:25;5.63;;;4.40;;
10005;SDS011;5042;42.626;23.382;2023-04-06T01:08:53;6.50;;;4.93;;
10005;SDS011;5042;42.626;23.382;2023-04-06T01:11:20;5.53;;;4.87;;
10005;SDS011;5042;42.626;23.382;2023-04-06T01:13:47;6.97;;;4.70;;
10005;SDS011;5042;42.626;23.382;2023-04-06T01:16:14;4.73;;;4.20;;
10005;SDS011;5042;42.626;23.382;2023-04-06T01:18:41;9.07;;;4.77;;
10005;SDS011;5042;42.626;23.382;2023-04-06T01:21:08;7.63;;;5.33;;
10005;SDS011;5042;42.626;23.382;2023-04-06T01:26:11;5.23;;;4.57;;
10005;SDS011;5042;42.626;23.382;2023-04-06T01:28:38;5.70;;;4.87;;
10005;SDS011;5042;42.626;23.382;2023-04-06T01:31:06;7.03;;;5.40;;
10005;SDS011;5042;42.626;23.382;2023-04-06T01:33:34;5.17;;;4.00;;
10005;SDS011;5042;42.626;23.382;2023-04-06T01:36:00;5.53;;;4.20;;
10005;SDS011;5042;42.626;23.382;2023-04-06T01:38:27;5.97;;;4.73;;
10005;SDS011;5042;42.626;23.382;2023-04-06T01:40:55;4.73;;;4.23;;
10005;SDS011;5042;42.626;23.382;2023-04-06T01:43:22;6.50;;;5.30;;
10005;SDS011;5042;42.626;23.382;2023-04-06T01:45:49;7.17;;;5.07;;
10005;SDS011;5042;42.626;23.382;2023-04-06T01:48:18;6.90;;;5.00;;
10005;SDS011;5042;42.626;23.382;2023-04-06T01:50:45;7.57;;;4.73;;
10005;SDS011;5042;42.626;23.382;2023-04-06T01:53:12;6.63;;;4.53;;
10005;SDS011;5042;42.626;23.382;2023-04-06T01:55:39;5.30;;;4.13;;
10005;SDS011;5042;42.626;23.382;2023-04-06T01:58:07;6.17;;;4.77;;
10005;SDS011;5042;42.626;23.382;2023-04-06T02:00:34;5.03;;;4.33;;
10005;SDS011;5042;42.626;23.382;2023-04-06T02:03:01;4.57;;;3.93;;
10005;SDS011;5042;42.626;23.382;2023-04-06T02:05:28;5.63;;;4.67;;
10005;SDS011;5042;42.626;23.382;2023-04-06T02:07:56;6.50;;;4.70;;
10005;SDS011;5042;42.626;23.382;2023-04-06T02:10:23;5.63;;;4.37;;
10005;SDS011;5042;42.626;23.382;2023-04-06T02:12:50;6.33;;;4.33;;
10005;SDS011;5042;42.626;23.382;2023-04-06T02:15:18;6.53;;;4.93;;
10005;SDS011;5042;42.626;23.382;2023-04-06T02:17:45;4.87;;;4.00;;
10005;SDS011;5042;42.626;23.382;2023-04-06T02:20:12;7.60;;;5.00;;
10005;SDS011;5042;42.626;23.382;2023-04-06T02:22:39;5.93;;;4.40;;
10005;SDS011;5042;42.626;23.382;2023-04-06T02:25:06;7.20;;;4.80;;
10005;SDS011;5042;42.626;23.382;2023-04-06T02:27:33;6.87;;;5.07;;
10005;SDS011;5042;42.626;23.382;2023-04-06T02:30:01;6.67;;;4.80;;
10005;SDS011;5042;42.626;23.382;2023-04-06T02:32:29;6.07;;;4.70;;
10005;SDS011;5042;42.626;23.382;2023-04-06T02:34:56;7.13;;;4.53;;
10005;SDS011;5042;42.626;23.382;2023-04-06T02:37:23;5.00;;;4.33;;
10005;SDS011;5042;42.626;23.382;2023-04-06T02:39:50;6.23;;;4.57;;
10005;SDS011;5042;42.626;23.382;2023-04-06T02:42:17;5.80;;;4.80;;
10005;SDS011;5042;42.626;23.382;2023-04-06T02:44:44;6.10;;;4.33;;
10005;SDS011;5042;42.626;23.382;2023-04-06T02:47:10;4.60;;;3.97;;
10005;SDS011;5042;42.626;23.382;2023-04-06T02:49:38;6.03;;;4.40;;
10005;SDS011;5042;42.626;23.382;2023-04-06T02:52:05;5.07;;;3.80;;
10005;SDS011;5042;42.626;23.382;2023-04-06T02:54:32;5.67;;;4.37;;
10005;SDS011;5042;42.626;23.382;2023-04-06T02:56:59;5.37;;;4.43;;
10005;SDS011;5042;42.626;23.382;2023-04-06T02:59:26;3.27;;;2.97;;
10005;SDS011;5042;42.626;23.382;2023-04-06T03:01:53;6.90;;;4.47;;
10005;SDS011;5042;42.626;23.382;2023-04-06T03:04:20;4.40;;;3.97;;
10005;SDS011;5042;42.626;23.382;2023-04-06T03:06:51;6.13;;;4.27;;
10005;SDS011;5042;42.626;23.382;2023-04-06T03:09:20;5.40;;;4.10;;
10005;SDS011;5042;42.626;23.382;2023-04-06T03:11:47;5.47;;;4.27;;
10005;SDS011;5042;42.626;23.382;2023-04-06T03:14:14;5.30;;;4.17;;
10005;SDS011;5042;42.626;23.382;2023-04-06T03:16:42;5.00;;;3.47;;
10005;SDS011;5042;42.626;23.382;2023-04-06T03:19:09;7.17;;;4.80;;
10005;SDS011;5042;42.626;23.382;2023-04-06T03:21:36;6.30;;;4.50;;
10005;SDS011;5042;42.626;23.382;2023-04-06T03:24:05;6.60;;;4.73;;
10005;SDS011;5042;42.626;23.382;2023-04-06T03:26:33;6.27;;;4.97;;
10005;SDS011;5042;42.626;23.382;2023-04-06T03:29:18;7.40;;;4.93;;
10005;SDS011;5042;42.626;23.382;2023-04-06T03:31:45;5.07;;;4.43;;
10005;SDS011;5042;42.626;23.382;2023-04-06T03:34:11;5.47;;;4.57;;
10005;SDS011;5042;42.626;23.382;2023-04-06T03:36:38;7.13;;;4.23;;
10005;SDS011;5042;42.626;23.382;2023-04-06T03:39:06;6.80;;;5.43;;
10005;SDS011;5042;42.626;23.382;2023-04-06T03:41:33;6.07;;;4.00;;
10005;SDS011;5042;42.626;23.382;2023-04-06T03:44:00;4.80;;;3.87;;
10005;SDS011;5042;42.626;23.382;2023-04-06T03:46:27;4.00;;;3.50;;
10005;SDS011;5042;42.626;23.382;2023-04-06T03:48:54;6.23;;;4.40;;
10005;SDS011;5042;42.626;23.382;2023-04-06T03:51:20;5.53;;;4.40;;
10005;SDS011;5042;42.626;23.382;2023-04-06T03:53:47;5.07;;;4.23;;
10005;SDS011;5042;42.626;23.382;2023-04-06T03:56:15;5.60;;;4.20;;
10005;SDS011;5042;42.626;23.382;2023-04-06T03:58:42;6.63;;;4.27;;
10005;SDS011;5042;42.626;23.382;2023-04-06T04:01:10;4.40;;;4.00;;
10005;SDS011;5042;42.626;23.382;2023-04-06T04:03:37;4.57;;;3.43;;
10005;SDS011;5042;42.626;23.382;2023-04-06T04:06:04;2.57;;;2.10;;
10005;SDS011;5042;42.626;23.382;2023-04-06T04:08:30;3.57;;;3.07;;
10005;SDS011;5042;42.626;23.382;2023-04-06T04:10:57;3.70;;;3.37;;
10005;SDS011;5042;42.626;23.382;2023-04-06T04:13:26;5.30;;;3.93;;
10005;SDS011;5042;42.626;23.382;2023-04-06T04:15:52;4.27;;;3.50;;
10005;SDS011;5042;42.626;23.382;2023-04-06T04:18:19;4.57;;;3.83;;
10005;SDS011;5042;42.626;23.382;2023-04-06T04:20:46;6.87;;;3.50;;
10005;SDS011;5042;42.626;23.382;2023-04-06T04:23:13;4.23;;;3.57;;
10005;SDS011;5042;42.626;23.382;2023-04-06T04:25:40;5.67;;;4.13;;
10005;SDS011;5042;42.626;23.382;2023-04-06T04:28:07;5.70;;;4.37;;
10005;SDS011;5042;42.626;23.382;2023-04-06T04:30:35;5.50;;;4.30;;
10005;SDS011;5042;42.626;23.382;2023-04-06T04:33:02;5.60;;;4.33;;
10005;SDS011;5042;42.626;23.382;2023-04-06T04:35:29;5.63;;;3.63;;
10005;SDS011;5042;42.626;23.382;2023-04-06T04:37:56;5.23;;;3.83;;
10005;SDS011;5042;42.626;23.382;2023-04-06T04:40:22;5.43;;;4.13;;
10005;SDS011;5042;42.626;23.382;2023-04-06T04:42:49;4.77;;;3.93;;
10005;SDS011;5042;42.626;23.382;2023-04-06T04:45:17;4.33;;;3.60;;
10005;SDS011;5042;42.626;23.382;2023-04-06T04:47:45;7.07;;;4.17;;
10005;SDS011;5042;42.626;23.382;2023-04-06T04:50:12;5.97;;;3.97;;
10005;SDS011;5042;42.626;23.382;2023-04-06T04:52:38;6.27;;;4.47;;
10005;SDS011;5042;42.626;23.382;2023-04-06T04:55:05;5.77;;;4.50;;
10005;SDS011;5042;42.626;23.382;2023-04-06T04:57:33;6.17;;;4.40;;
10005;SDS011;5042;42.626;23.382;2023-04-06T05:00:00;5.10;;;3.80;;
10005;SDS011;5042;42.626;23.382;2023-04-06T05:02:27;6.07;;;4.53;;
10005;SDS011;5042;42.626;23.382;2023-04-06T05:04:55;5.20;;;4.03;;
10005;SDS011;5042;42.626;23.382;2023-04-06T05:07:22;3.97;;;3.30;;
10005;SDS011;5042;42.626;23.382;2023-04-06T05:09:49;5.60;;;4.43;;
10005;SDS011;5042;42.626;23.382;2023-04-06T05:12:16;5.93;;;4.40;;
10005;SDS011;5042;42.626;23.382;2023-04-06T05:14:42;4.90;;;4.17;;
10005;SDS011;5042;42.626;23.382;2023-04-06T05:17:10;4.87;;;4.37;;
10005;SDS011;5042;42.626;23.382;2023-04-06T05:19:37;5.87;;;4.43;;
10005;SDS011;5042;42.626;23.382;2023-04-06T05:22:05;5.73;;;4.20;;
10005;SDS011;5042;42.626;23.382;2023-04-06T05:24:32;5.90;;;4.57;;
10005;SDS011;5042;42.626;23.382;2023-04-06T05:27:00;6.10;;;4.57;;
10005;SDS011;5042;42.626;23.382;2023-04-06T05:29:27;6.43;;;4.07;;
10005;SDS011;5042;42.626;23.382;2023-04-06T05:31:54;6.60;;;4.33;;
10005;SDS011;5042;42.626;23.382;2023-04-06T05:34:20;4.20;;;3.80;;
10005;SDS011;5042;42.626;23.382;2023-04-06T05:36:48;6.77;;;4.50;;
10005;SDS011;5042;42.626;23.382;2023-04-06T05:39:16;5.70;;;3.70;;
10005;SDS011;5042;42.626;23.382;2023-04-06T05:41:43;5.10;;;3.60;;
10005;SDS011;5042;42.626;23.382;2023-04-06T05:44:10;4.60;;;3.80;;
10005;SDS011;5042;42.626;23.382;2023-04-06T05:46:37;5.40;;;3.97;;
10005;SDS011;5042;42.626;23.382;2023-04-06T05:49:04;3.40;;;2.80;;
10005;SDS011;5042;42.626;23.382;2023-04-06T05:51:31;6.77;;;4.77;;
10005;SDS011;5042;42.626;23.382;2023-04-06T05:53:57;5.13;;;4.13;;
10005;SDS011;5042;42.626;23.382;2023-04-06T05:56:26;7.23;;;4.73;;
10005;SDS011;5042;42.626;23.382;2023-04-06T05:58:52;6.00;;;5.10;;
10005;SDS011;5042;42.626;23.382;2023-04-06T06:01:19;7.40;;;4.43;;
10005;SDS011;5042;42.626;23.382;2023-04-06T06:03:46;10.20;;;4.83;;
10005;SDS011;5042;42.626;23.382;2023-04-06T06:06:13;5.90;;;5.00;;
10005;SDS011;5042;42.626;23.382;2023-04-06T06:08:40;8.97;;;5.70;;
10005;SDS011;5042;42.626;23.382;2023-04-06T06:11:06;7.53;;;5.20;;
10005;SDS011;5042;42.626;23.382;2023-04-06T06:13:35;7.47;;;5.60;;
10005;SDS011;5042;42.626;23.382;2023-04-06T06:16:02;9.30;;;5.37;;
10005;SDS011;5042;42.626;23.382;2023-04-06T06:18:30;8.40;;;5.47;;
10005;SDS011;5042;42.626;23.382;2023-04-06T06:20:57;8.07;;;5.03;;
10005;SDS011;5042;42.626;23.382;2023-04-06T06:23:24;7.33;;;4.90;;
10005;SDS011;5042;42.626;23.382;2023-04-06T06:25:51;4.93;;;4.03;;
10005;SDS011;5042;42.626;23.382;2023-04-06T06:28:18;5.67;;;4.27;;
10005;SDS011;5042;42.626;23.382;2023-04-06T06:30:47;7.07;;;5.13;;
10005;SDS011;5042;42.626;23.382;2023-04-06T06:33:14;6.30;;;5.07;;
10005;SDS011;5042;42.626;23.382;2023-04-06T06:35:41;8.33;;;5.63;;
10005;SDS011;5042;42.626;23.382;2023-04-06T06:38:08;8.57;;;5.73;;
10005;SDS011;5042;42.626;23.382;2023-04-06T06:40:35;5.90;;;3.97;;
10005;SDS011;5042;42.626;23.382;2023-04-06T06:43:02;5.63;;;4.30;;
10005;SDS011;5042;42.626;23.382;2023-04-06T06:45:28;6.03;;;4.63;;
10005;SDS011;5042;42.626;23.382;2023-04-06T06:47:57;6.37;;;4.93;;
10005;SDS011;5042;42.626;23.382;2023-04-06T06:50:23;6.10;;;4.57;;
10005;SDS011;5042;42.626;23.382;2023-04-06T06:52:50;7.43;;;5.20;;
10005;SDS011;5042;42.626;23.382;2023-04-06T06:55:17;8.97;;;5.60;;
10005;SDS011;5042;42.626;23.382;2023-04-06T06:57:45;7.30;;;5.03;;
10005;SDS011;5042;42.626;23.382;2023-04-06T07:00:13;7.73;;;5.20;;
10005;SDS011;5042;42.626;23.382;2023-04-06T07:02:40;6.10;;;4.50;;
10005;SDS011;5042;42.626;23.382;2023-04-06T07:05:09;8.23;;;5.33;;
10005;SDS011;5042;42.626;23.382;2023-04-06T07:07:35;6.87;;;5.47;;
10005;SDS011;5042;42.626;23.382;2023-04-06T07:10:02;7.67;;;5.20;;
10005;SDS011;5042;42.626;23.382;2023-04-06T07:12:29;6.73;;;5.27;;
10005;SDS011;5042;42.626;23.382;2023-04-06T07:14:56;6.93;;;5.53;;
10005;SDS011;5042;42.626;23.382;2023-04-06T07:17:23;5.90;;;4.70;;
10005;SDS011;5042;42.626;23.382;2023-04-06T07:19:50;8.07;;;5.50;;
10005;SDS011;5042;42.626;23.382;2023-04-06T07:22:21;5.60;;;4.57;;
10005;SDS011;5042;42.626;23.382;2023-04-06T07:24:48;4.90;;;4.23;;
10005;SDS011;5042;42.626;23.382;2023-04-06T07:27:15;6.57;;;4.97;;
10005;SDS011;5042;42.626;23.382;2023-04-06T07:29:42;8.00;;;5.40;;
10005;SDS011;5042;42.626;23.382;2023-04-06T07:32:09;9.57;;;5.40;;
10005;SDS011;5042;42.626;23.382;2023-04-06T07:34:36;6.13;;;4.77;;
10005;SDS011;5042;42.626;23.382;2023-04-06T07:37:03;5.50;;;4.37;;
10005;SDS011;5042;42.626;23.382;2023-04-06T07:39:31;6.20;;;4.23;;
10005;SDS011;5042;42.626;23.382;2023-04-06T07:41:58;6.40;;;4.47;;
10005;SDS011;5042;42.626;23.382;2023-04-06T07:44:25;6.67;;;4.90;;
10005;SDS011;5042;42.626;23.382;2023-04-06T07:46:52;4.60;;;4.13;;
10005;SDS011;5042;42.626;23.382;2023-04-06T07:49:19;8.90;;;4.67;;
10005;SDS011;5042;42.626;23.382;2023-04-06T07:51:46;6.10;;;4.73;;
10005;SDS011;5042;42.626;23.382;2023-04-06T07:54:12;4.30;;;3.83;;
10005;SDS011;5042;42.626;23.382;2023-04-06T07:56:41;6.90;;;4.80;;
10005;SDS011;5042;42.626;23.382;2023-04-06T07:59:07;9.93;;;5.80;;
10005;SDS011;5042;42.626;23.382;2023-04-06T08:01:36;7.50;;;6.03;;
10005;SDS011;5042;42.626;23.382;2023-04-06T08:04:03;7.47;;;6.20;;
10005;SDS011;5042;42.626;23.382;2023-04-06T08:06:30;6.33;;;5.73;;
10005;SDS011;5042;42.626;23.382;2023-04-06T08:08:57;7.90;;;6.03;;
10005;SDS011;5042;42.626;23.382;2023-04-06T08:11:23;6.90;;;5.60;;
10005;SDS011;5042;42.626;23.382;2023-04-06T08:13:53;6.83;;;5.20;;
10005;SDS011;5042;42.626;23.382;2023-04-06T08:16:20;8.27;;;6.50;;
10005;SDS011;5042;42.626;23.382;2023-04-06T08:18:47;8.20;;;5.97;;
10005;SDS011;5042;42.626;23.382;2023-04-06T08:21:14;7.17;;;5.80;;
10005;SDS011;5042;42.626;23.382;2023-04-06T08:23:41;7.97;;;5.40;;
10005;SDS011;5042;42.626;23.382;2023-04-06T08:26:08;6.63;;;4.77;;
10005;SDS011;5042;42.626;23.382;2023-04-06T08:28:35;8.70;;;5.43;;
10005;SDS011;5042;42.626;23.382;2023-04-06T08:31:04;5.10;;;3.90;;
10005;SDS011;5042;42.626;23.382;2023-04-06T08:33:32;6.80;;;5.07;;
10005;SDS011;5042;42.626;23.382;2023-04-06T08:36:06;6.73;;;4.97;;
10005;SDS011;5042;42.626;23.382;2023-04-06T08:38:33;6.93;;;5.03;;
10005;SDS011;5042;42.626;23.382;2023-04-06T08:41:06;4.00;;;3.57;;
10005;SDS011;5042;42.626;23.382;2023-04-06T08:43:34;7.30;;;5.10;;
10005;SDS011;5042;42.626;23.382;2023-04-06T08:46:09;6.23;;;5.00;;
10005;SDS011;5042;42.626;23.382;2023-04-06T08:48:36;5.90;;;4.50;;
10005;SDS011;5042;42.626;23.382;2023-04-06T08:51:04;4.70;;;4.23;;
10005;SDS011;5042;42.626;23.382;2023-04-06T08:53:31;6.03;;;4.10;;
10005;SDS011;5042;42.626;23.382;2023-04-06T08:55:58;4.43;;;4.03;;
10005;SDS011;5042;42.626;23.382;2023-04-06T08:58:26;6.47;;;4.27;;
10005;SDS011;5042;42.626;23.382;2023-04-06T09:00:57;5.00;;;4.03;;
10005;SDS011;5042;42.626;23.382;2023-04-06T09:03:27;4.23;;;3.83;;
10005;SDS011;5042;42.626;23.382;2023-04-06T09:05:56;6.93;;;4.87;;
10005;SDS011;5042;42.626;23.382;2023-04-06T09:08:22;6.10;;;4.57;;
10005;SDS011;5042;42.626;23.382;2023-04-06T09:10:50;5.50;;;4.97;;
10005;SDS011;5042;42.626;23.382;2023-04-06T09:13:17;4.70;;;3.97;;
10005;SDS011;5042;42.626;23.382;2023-04-06T09:15:44;5.50;;;4.47;;
10005;SDS011;5042;42.626;23.382;2023-04-06T09:18:10;5.83;;;4.17;;
10005;SDS011;5042;42.626;23.382;2023-04-06T09:20:39;6.70;;;4.93;;
10005;SDS011;5042;42.626;23.382;2023-04-06T09:23:05;7.50;;;5.23;;
10005;SDS011;5042;42.626;23.382;2023-04-06T09:25:32;7.20;;;5.10;;
10005;SDS011;5042;42.626;23.382;2023-04-06T09:27:59;7.37;;;4.73;;
10005;SDS011;5042;42.626;23.382;2023-04-06T09:30:27;6.63;;;4.63;;
10005;SDS011;5042;42.626;23.382;2023-04-06T09:32:54;4.70;;;4.07;;
10005;SDS011;5042;42.626;23.382;2023-04-06T09:35:22;7.00;;;4.60;;
10005;SDS011;5042;42.626;23.382;2023-04-06T09:37:53;5.10;;;4.40;;
10005;SDS011;5042;42.626;23.382;2023-04-06T09:40:20;5.30;;;4.77;;
10005;SDS011;5042;42.626;23.382;2023-04-06T09:42:47;6.40;;;4.57;;
10005;SDS011;5042;42.626;23.382;2023-04-06T09:45:17;4.17;;;3.80;;
10005;SDS011;5042;42.626;23.382;2023-04-06T09:47:44;6.13;;;4.43;;
10005;SDS011;5042;42.626;23.382;2023-04-06T09:50:12;4.90;;;4.40;;
10005;SDS011;5042;42.626;23.382;2023-04-06T09:52:42;6.00;;;5.23;;
10005;SDS011;5042;42.626;23.382;2023-04-06T09:55:16;6.17;;;4.83;;
10005;SDS011;5042;42.626;23.382;2023-04-06T09:57:50;6.10;;;4.53;;
10005;SDS011;5042;42.626;23.382;2023-04-06T10:00:22;5.73;;;4.43;;
10005;SDS011;5042;42.626;23.382;2023-04-06T10:02:58;6.00;;;4.57;;
10005;SDS011;5042;42.626;23.382;2023-04-06T10:05:30;5.80;;;4.60;;
10005;SDS011;5042;42.626;23.382;2023-04-06T10:08:05;7.90;;;4.80;;
10005;SDS011;5042;42.626;23.382;2023-04-06T10:10:34;5.33;;;4.70;;
10005;SDS011;5042;42.626;23.382;2023-04-06T10:13:02;5.33;;;4.10;;
10005;SDS011;5042;42.626;23.382;2023-04-06T10:15:30;5.23;;;4.30;;
10005;SDS011;5042;42.626;23.382;2023-04-06T10:17:57;5.00;;;4.10;;
10005;SDS011;5042;42.626;23.382;2023-04-06T10:20:27;4.27;;;3.87;;
10005;SDS011;5042;42.626;23.382;2023-04-06T10:22:59;6.23;;;4.73;;
10005;SDS011;5042;42.626;23.382;2023-04-06T10:25:31;5.20;;;4.33;;
10005;SDS011;5042;42.626;23.382;2023-04-06T10:28:01;6.93;;;4.77;;
10005;SDS011;5042;42.626;23.382;2023-04-06T10:30:31;7.13;;;5.13;;
10005;SDS011;5042;42.626;23.382;2023-04-06T10:32:59;6.03;;;4.57;;
10005;SDS011;5042;42.626;23.382;2023-04-06T10:35:36;5.17;;;4.40;;
10005;SDS011;5042;42.626;23.382;2023-04-06T10:38:04;5.43;;;4.63;;
10005;SDS011;5042;42.626;23.382;2023-04-06T10:40:31;5.00;;;4.50;;
10005;SDS011;5042;42.626;23.382;2023-04-06T10:43:08;4.57;;;3.63;;
10005;SDS011;5042;42.626;23.382;2023-04-06T10:45:35;6.77;;;3.90;;
10005;SDS011;5042;42.626;23.382;2023-04-06T10:48:12;5.33;;;4.30;;
10005;SDS011;5042;42.626;23.382;2023-04-06T10:50:39;5.47;;;4.80;;
10005;SDS011;5042;42.626;23.382;2023-04-06T10:53:06;5.47;;;4.73;;
10005;SDS011;5042;42.626;23.382;2023-04-06T10:55:33;6.00;;;5.10;;
10005;SDS011;5042;42.626;23.382;2023-04-06T10:58:01;6.47;;;5.67;;
10005;SDS011;5042;42.626;23.382;2023-04-06T11:00:29;6.73;;;6.00;;
10005;SDS011;5042;42.626;23.382;2023-04-06T11:02:58;5.80;;;5.00;;
10005;SDS011;5042;42.626;23.382;2023-04-06T11:05:26;6.33;;;5.27;;
10005;SDS011;5042;42.626;23.382;2023-04-06T11:07:52;5.63;;;5.10;;
10005;SDS011;5042;42.626;23.382;2023-04-06T11:10:21;7.30;;;5.60;;
10005;SDS011;5042;42.626;23.382;2023-04-06T11:12:52;7.43;;;5.43;;
10005;SDS011;5042;42.626;23.382;2023-04-06T11:15:20;6.17;;;4.97;;
10005;SDS011;5042;42.626;23.382;2023-04-06T11:17:48;5.63;;;5.03;;
10005;SDS011;5042;42.626;23.382;2023-04-06T11:20:15;6.33;;;5.20;;
10005;SDS011;5042;42.626;23.382;2023-04-06T11:22:49;7.60;;;5.83;;
10005;SDS011;5042;42.626;23.382;2023-04-06T11:25:17;5.27;;;4.73;;
10005;SDS011;5042;42.626;23.382;2023-04-06T11:27:45;6.33;;;5.47;;
10005;SDS011;5042;42.626;23.382;2023-04-06T11:30:13;5.90;;;4.97;;
10005;SDS011;5042;42.626;23.382;2023-04-06T11:32:40;3.40;;;3.13;;
10005;SDS011;5042;42.626;23.382;2023-04-06T11:35:11;6.87;;;4.73;;
10005;SDS011;5042;42.626;23.382;2023-04-06T11:37:45;6.83;;;5.17;;
10005;SDS011;5042;42.626;23.382;2023-04-06T11:40:12;5.77;;;5.17;;
10005;SDS011;5042;42.626;23.382;2023-04-06T11:42:39;5.67;;;4.70;;
10005;SDS011;5042;42.626;23.382;2023-04-06T11:45:06;8.30;;;6.20;;
10005;SDS011;5042;42.626;23.382;2023-04-06T11:47:36;5.40;;;4.90;;
10005;SDS011;5042;42.626;23.382;2023-04-06T11:50:06;5.83;;;5.20;;
10005;SDS011;5042;42.626;23.382;2023-04-06T11:52:36;8.30;;;5.20;;
10005;SDS011;5042;42.626;23.382;2023-04-06T11:55:10;7.00;;;5.70;;
10005;SDS011;5042;42.626;23.382;2023-04-06T11:57:38;6.10;;;5.13;;
10005;SDS011;5042;42.626;23.382;2023-04-06T12:00:05;7.17;;;5.10;;
10005;SDS011;5042;42.626;23.382;2023-04-06T12:02:33;5.50;;;4.87;;
10005;SDS011;5042;42.626;23.382;2023-04-06T12:05:01;6.07;;;5.13;;
10005;SDS011;5042;42.626;23.382;2023-04-06T12:07:28;5.60;;;5.00;;
10005;SDS011;5042;42.626;23.382;2023-04-06T12:09:56;6.53;;;4.83;;
10005;SDS011;5042;42.626;23.382;2023-04-06T12:12:23;6.53;;;5.13;;
10005;SDS011;5042;42.626;23.382;2023-04-06T12:14:50;7.70;;;5.50;;
10005;SDS011;5042;42.626;23.382;2023-04-06T12:17:17;5.93;;;5.33;;
10005;SDS011;5042;42.626;23.382;2023-04-06T12:19:45;8.60;;;5.53;;
10005;SDS011;5042;42.626;23.382;2023-04-06T12:22:12;6.70;;;5.47;;
10005;SDS011;5042;42.626;23.382;2023-04-06T12:24:39;8.13;;;5.67;;
10005;SDS011;5042;42.626;23.382;2023-04-06T12:27:07;6.73;;;5.60;;
10005;SDS011;5042;42.626;23.382;2023-04-06T12:29:36;8.10;;;5.47;;
10005;SDS011;5042;42.626;23.382;2023-04-06T12:32:03;6.63;;;5.93;;
10005;SDS011;5042;42.626;23.382;2023-04-06T12:34:31;7.60;;;5.67;;
10005;SDS011;5042;42.626;23.382;2023-04-06T12:36:58;7.63;;;5.97;;
10005;SDS011;5042;42.626;23.382;2023-04-06T12:39:25;6.73;;;5.90;;
10005;SDS011;5042;42.626;23.382;2023-04-06T12:41:53;6.87;;;5.80;;
10005;SDS011;5042;42.626;23.382;2023-04-06T12:44:21;5.73;;;5.17;;
10005;SDS011;5042;42.626;23.382;2023-04-06T12:46:48;8.03;;;6.10;;
10005;SDS011;5042;42.626;23.382;2023-04-06T12:49:15;7.47;;;5.70;;
10005;SDS011;5042;42.626;23.382;2023-04-06T12:51:44;6.17;;;5.13;;
10005;SDS011;5042;42.626;23.382;2023-04-06T12:54:11;5.93;;;5.07;;
10005;SDS011;5042;42.626;23.382;2023-04-06T12:56:38;7.40;;;5.30;;
10005;SDS011;5042;42.626;23.382;2023-04-06T12:59:05;7.50;;;5.90;;
10005;SDS011;5042;42.626;23.382;2023-04-06T13:01:33;6.27;;;5.67;;
10005;SDS011;5042;42.626;23.382;2023-04-06T13:04:00;6.07;;;5.30;;
10005;SDS011;5042;42.626;23.382;2023-04-06T13:06:27;6.23;;;5.30;;
10005;SDS011;5042;42.626;23.382;2023-04-06T13:08:55;6.60;;;5.27;;
10005;SDS011;5042;42.626;23.382;2023-04-06T13:11:22;6.43;;;5.33;;
10005;SDS011;5042;42.626;23.382;2023-04-06T13:13:49;7.50;;;5.80;;
10005;SDS011;5042;42.626;23.382;2023-04-06T13:16:16;7.63;;;5.70;;
10005;SDS011;5042;42.626;23.382;2023-04-06T13:18:46;7.97;;;6.20;;
10005;SDS011;5042;42.626;23.382;2023-04-06T13:21:13;6.93;;;6.00;;
10005;SDS011;5042;42.626;23.382;2023-04-06T13:23:45;8.00;;;5.87;;
10005;SDS011;5042;42.626;23.382;2023-04-06T13:26:12;7.97;;;6.43;;
10005;SDS011;5042;42.626;23.382;2023-04-06T13:28:40;7.43;;;6.00;;
10005;SDS011;5042;42.626;23.382;2023-04-06T13:31:07;8.93;;;6.53;;
10005;SDS011;5042;42.626;23.382;2023-04-06T13:33:34;8.03;;;5.80;;
10005;SDS011;5042;42.626;23.382;2023-04-06T13:36:03;9.57;;;5.50;;
10005;SDS011;5042;42.626;23.382;2023-04-06T13:38:32;6.83;;;5.60;;
10005;SDS011;5042;42.626;23.382;2023-04-06T13:40:59;7.67;;;5.80;;
10005;SDS011;5042;42.626;23.382;2023-04-06T13:43:26;7.10;;;5.60;;
10005;SDS011;5042;42.626;23.382;2023-04-06T13:45:53;6.23;;;5.53;;
10005;SDS011;5042;42.626;23.382;2023-04-06T13:48:21;7.17;;;6.00;;
10005;SDS011;5042;42.626;23.382;2023-04-06T13:50:48;7.20;;;6.30;;
10005;SDS011;5042;42.626;23.382;2023-04-06T13:53:16;7.80;;;5.97;;
10005;SDS011;5042;42.626;23.382;2023-04-06T13:55:43;7.43;;;5.60;;
10005;SDS011;5042;42.626;23.382;2023-04-06T13:58:18;8.60;;;5.60;;
10005;SDS011;5042;42.626;23.382;2023-04-06T14:00:45;6.60;;;5.47;;
10005;SDS011;5042;42.626;23.382;2023-04-06T14:03:11;6.17;;;4.90;;
10005;SDS011;5042;42.626;23.382;2023-04-06T14:05:38;7.20;;;5.23;;
10005;SDS011;5042;42.626;23.382;2023-04-06T14:08:05;6.53;;;5.30;;
10005;SDS011;5042;42.626;23.382;2023-04-06T14:10:37;6.40;;;5.43;;
10005;SDS011;5042;42.626;23.382;2023-04-06T14:13:05;5.83;;;4.53;;
10005;SDS011;5042;42.626;23.382;2023-04-06T14:15:32;6.00;;;4.70;;
10005;SDS011;5042;42.626;23.382;2023-04-06T14:17:59;6.10;;;5.30;;
10005;SDS011;5042;42.626;23.382;2023-04-06T14:20:26;7.03;;;5.27;;
10005;SDS011;5042;42.626;23.382;2023-04-06T14:22:53;5.70;;;4.90;;
10005;SDS011;5042;42.626;23.382;2023-04-06T14:25:20;6.07;;;5.47;;
10005;SDS011;5042;42.626;23.382;2023-04-06T14:27:48;6.47;;;5.30;;
10005;SDS011;5042;42.626;23.382;2023-04-06T14:30:15;5.80;;;5.20;;
10005;SDS011;5042;42.626;23.382;2023-04-06T14:32:42;6.90;;;5.20;;
10005;SDS011;5042;42.626;23.382;2023-04-06T14:35:09;4.77;;;4.27;;
10005;SDS011;5042;42.626;23.382;2023-04-06T14:37:36;6.80;;;5.50;;
10005;SDS011;5042;42.626;23.382;2023-04-06T14:40:03;7.13;;;5.40;;
10005;SDS011;5042;42.626;23.382;2023-04-06T14:42:30;5.57;;;5.00;;
10005;SDS011;5042;42.626;23.382;2023-04-06T14:44:58;7.17;;;5.50;;
10005;SDS011;5042;42.626;23.382;2023-04-06T14:47:25;6.80;;;5.50;;
10005;SDS011;5042;42.626;23.382;2023-04-06T14:49:52;6.43;;;5.33;;
10005;SDS011;5042;42.626;23.382;2023-04-06T14:52:19;7.57;;;5.90;;